Portland, OR

4:46 AM PST on November 17, 2019 (GMT -0800)
SW Hills, Portland, OR | | Change Station

Elev 709 ft 45.50 °N, 122.70 °W | Updated 9 seconds ago

Overcast
Overcast
50.4 °F
Feels Like 50.4 °F
N
0
Wind Variable Wind from NNW
Gusts 0.0 mph

Today
High -- | Low -- °F
--% Chance of Precip.
Yesterday
High -- | Low -- °F
Precip. -- in
Pressure 30.17 in
Visibility 10.0 miles
Clouds Mostly Cloudy 6500 ft
Overcast 7500 ft
Dew Point 47 °F
Humidity 89%
Rainfall 0.00 in
Snow Depth Not available.
7:12 AM 4:38 PM
Waning Gibbous, 75% visible
METAR KPDX 171153Z 11008KT 10SM BKN065 OVC075 10/09 A3017 RMK AO2 SLP216 60000 T01000089 10117 20094 58018
Pressure 30.17 in
Visibility 10.0 miles
Clouds Mostly Cloudy 6500 ft
Overcast 7500 ft
Dew Point 47 °F
Humidity 89%
Rainfall 0.00 in
Snow Depth Not available.
7:12 AM 4:38 PM
Waning Gibbous, 75% visible
METAR KPDX 171153Z 11008KT 10SM BKN065 OVC075 10/09 A3017 RMK AO2 SLP216 60000 T01000089 10117 20094 58018

Get Severe Weather Alerts

Thanks for signing up!

Be on the lookout for a verification email in your inbox.

You'll start receiving the daily forecast at 6 AM.

×

10-Day Weather Forecast

Almanac

Astronomy

Nov. 17, 2019 Rise Set
Actual Time
Civil Twilight
Nautical Twilight
Astronomical Twilight
Moon
Length of Visible Light
Length of Day
Tomorrow will be .
, % of the Moon is Illuminated

Today's Extremes

State Highs State Lows

Community

WunderPhotos

Category 6

Welcome to Category 6. This is the collective home for Weather Underground's featured writeups by Dr. Jeff Masters (right), Bob Henson (left), Chris Burt, and other regular contributors.

Nearby

Air Quality

  Air Quality AQ Index Pollutant
Not available.

Snow Depth

Station Depth Elevation

Earthquake Activity

City Distance Mag. Time & Date
Minimum magnitude displayed is 2.5.

Coastal Water Temperatures

Place Temperature

Stations

Nearby Weather Stations

Station Location Temp. Windchill Dew Point Humidity Wind Precip. Elev Updated Type
                   

Watches & Warnings

There are currently no watches in effect.